Time;durP1;ratioP1;P1;durP2;ratioP2;P2;SDS_P1;SDS_P2;PMS_P1;PMS_P2;Temp;Humidity;BMP_temperature;BMP_pressure;BME280_temperature;BME280_humidity;BME280_pressure;Samples;Min_cycle;Max_cycle;Signal;HPM_P1;HPM_P2
2023/07/02 00:03:56;;;;;;;;;;;23.10;49.50;;;22.40;48.11;99969.81;12244501;19;20317;-87
2023/07/02 00:07:58;;;;;;;;;;;23.10;49.30;;;22.36;48.11;99979.19;12248423;19;19921;-87
2023/07/02 00:11:59;;;;;;;;;;;23.10;49.10;;;22.33;48.09;99974.19;12246237;19;19917;-87
2023/07/02 00:16:02;;;;;;;;;;;23.00;49.10;;;22.35;47.94;99972.19;12247589;19;19922;-87
2023/07/02 00:20:05;;;;;;;;;;;23.00;49.00;;;22.31;48.39;99966.41;12247749;19;20322;-87
2023/07/02 00:24:11;;;;;;;;;;;23.00;49.20;;;22.24;48.50;99959.34;12243749;19;19911;-87
2023/07/02 00:28:12;;;;;;;;;;;23.00;49.10;;;22.28;48.08;99969.44;12246701;19;19919;-88
2023/07/02 00:32:14;;;;;;;;;;;23.00;49.10;;;22.24;48.22;99973.44;12245959;19;19922;-88
2023/07/02 00:36:15;;;;;;;;;;;23.00;49.20;;;22.19;48.23;99964.34;12245533;19;20324;-87
2023/07/02 00:40:17;;;;;;;;;;;23.00;49.20;;;22.01;48.43;99943.38;12246701;19;19982;-88
2023/07/02 00:44:19;;;;;;;;;;;22.90;49.20;;;22.14;48.25;99972.84;12242906;19;19923;-87
2023/07/02 00:48:20;;;;;;;;;;;22.90;49.00;;;22.14;48.70;99980.00;12245181;19;19919;-88
2023/07/02 00:52:23;;;;;;;;;;;22.90;49.20;;;22.11;48.42;99991.81;12244212;19;19923;-87
2023/07/02 00:56:26;;;;;;;;;;;22.90;49.10;;;22.04;48.89;99978.41;12245261;19;20404;-87
2023/07/02 01:00:28;;;;;;;;;;;22.80;49.10;;;22.12;48.82;99997.97;12246630;19;20265;-87
2023/07/02 01:04:30;;;;;;;;;;;22.80;49.30;;;22.06;48.74;99979.06;12249061;19;19938;-88
2023/07/02 01:08:32;;;;;;;;;;;22.80;49.30;;;22.08;48.89;99974.38;12258816;19;19986;-87
2023/07/02 01:12:35;;;;;;;;;;;22.80;49.40;;;22.08;48.83;99982.34;12254720;19;19923;-87
2023/07/02 01:16:38;;;;;;;;;;;22.80;49.30;;;22.05;48.58;99974.72;12256526;19;19918;-87
2023/07/02 01:20:42;;;;;;;;;;;22.80;49.40;;;22.13;48.81;99976.50;12257805;19;19913;-87
2023/07/02 01:24:46;;;;;;;;;;;22.80;49.30;;;22.00;48.84;99974.44;12251767;19;19949;-88
2023/07/02 01:28:48;;;;;;;;;;;22.80;49.40;;;22.00;48.89;99981.59;12255786;19;19923;-87
2023/07/02 01:32:49;;;;;;;;;;;22.70;49.40;;;21.95;48.58;99982.13;12253285;19;19914;-87
2023/07/02 01:36:52;;;;;;;;;;;22.80;49.20;;;21.94;48.77;100011.56;12256033;19;19978;-87
2023/07/02 01:40:53;;;;;;;;;;;22.70;49.40;;;21.68;49.04;99978.13;12256758;19;19926;-87
2023/07/02 01:44:55;;;;;;;;;;;22.70;49.30;;;21.71;48.97;99990.25;12249165;19;20358;-87
2023/07/02 01:48:56;;;;;;;;;;;22.60;49.40;;;21.55;49.02;99973.41;12253998;19;19923;-87
2023/07/02 01:52:58;;;;;;;;;;;22.60;49.40;;;21.55;49.28;99973.41;12251819;19;19918;-87
2023/07/02 01:57:00;;;;;;;;;;;22.60;49.40;;;21.65;49.27;99997.09;12254924;19;20323;-87
2023/07/02 02:01:02;;;;;;;;;;;22.50;49.30;;;21.65;49.39;100011.19;12253578;19;19923;-87
2023/07/02 02:05:04;;;;;;;;;;;22.50;49.40;;;21.58;49.19;99996.16;12255077;19;20468;-87
2023/07/02 02:09:06;;;;;;;;;;;22.40;49.20;;;21.55;49.32;99992.00;12252462;19;19934;-88
2023/07/02 02:13:08;;;;;;;;;;;22.50;49.40;;;21.59;48.98;100009.25;12249003;19;19927;-87
2023/07/02 02:17:09;;;;;;;;;;;22.40;49.40;;;21.46;49.28;99995.69;12253300;19;19918;-88
2023/07/02 02:21:11;;;;;;;;;;;22.40;49.80;;;21.54;48.99;100011.59;12253744;19;19930;-87
2023/07/02 02:25:13;;;;;;;;;;;22.40;49.50;;;21.36;49.21;99987.91;12252802;19;19919;-88
2023/07/02 02:29:15;;;;;;;;;;;22.40;49.40;;;21.48;49.48;100017.59;12252602;19;19919;-87
2023/07/02 02:33:17;;;;;;;;;;;22.30;49.40;;;21.45;49.21;100007.34;12251099;19;19922;-88
2023/07/02 02:37:22;;;;;;;;;;;22.30;49.30;;;21.45;49.42;100014.47;12252106;19;19986;-87
2023/07/02 02:41:25;;;;;;;;;;;22.30;49.40;;;21.52;49.47;100037.53;12251701;19;19932;-87
2023/07/02 02:45:29;;;;;;;;;;;22.30;49.30;;;21.53;49.19;100035.69;12252606;19;20350;-87
2023/07/02 02:49:31;;;;;;;;;;;22.30;49.40;;;21.19;49.56;99989.78;12250463;19;19954;-87
2023/07/02 02:53:33;;;;;;;;;;;22.30;49.30;;;21.47;49.27;100036.38;12249302;19;19942;-87
2023/07/02 02:57:34;;;;;;;;;;;22.20;49.20;;;21.47;49.73;100034.56;12251026;19;19925;-87
2023/07/02 03:01:36;;;;;;;;;;;22.20;49.30;;;21.43;49.46;100022.59;12253177;19;19928;-87
2023/07/02 03:05:38;;;;;;;;;;;22.20;49.30;;;21.47;49.30;100025.75;12250425;19;19929;-87
2023/07/02 03:09:39;;;;;;;;;;;22.30;49.30;;;21.44;49.58;100016.28;12249285;19;20410;-87
2023/07/02 03:13:41;;;;;;;;;;;22.30;49.40;;;21.51;49.26;100048.31;12247218;19;19962;-87
2023/07/02 03:17:43;;;;;;;;;;;22.30;49.30;;;21.41;49.76;100029.91;12250766;19;19919;-87
2023/07/02 03:21:45;;;;;;;;;;;22.30;49.30;;;21.35;49.75;100022.59;12248690;19;19936;-87
2023/07/02 03:25:46;;;;;;;;;;;22.20;49.20;;;21.39;49.25;100032.75;12251693;19;19919;-88
2023/07/02 03:29:48;;;;;;;;;;;22.20;49.20;;;21.40;49.60;100036.25;12246498;19;19942;-88
2023/07/02 03:33:50;;;;;;;;;;;22.20;49.20;;;21.40;49.49;100046.88;12245111;19;19915;-88
2023/07/02 03:37:51;;;;;;;;;;;22.20;49.30;;;21.27;49.81;100036.75;12250094;19;19915;-87
2023/07/02 03:41:53;;;;;;;;;;;22.20;49.30;;;21.31;49.55;100045.22;12246283;19;19923;-87
2023/07/02 03:45:57;;;;;;;;;;;22.10;49.30;;;21.31;49.36;100059.31;12244148;19;19919;-87
2023/07/02 03:49:59;;;;;;;;;;;22.10;49.40;;;21.20;49.62;100036.59;12246593;19;20329;-87
2023/07/02 03:54:01;;;;;;;;;;;22.10;49.40;;;21.18;49.81;100049.22;12245194;19;19918;-87
2023/07/02 03:58:02;;;;;;;;;;;22.00;49.20;;;21.12;49.38;100041.94;12248120;19;19911;-87
2023/07/02 04:02:04;;;;;;;;;;;22.00;49.30;;;21.21;49.71;100070.13;12249001;19;19918;-87
2023/07/02 04:06:06;;;;;;;;;;;22.00;49.40;;;21.14;49.67;100053.22;12249153;19;19915;-87
2023/07/02 04:10:08;;;;;;;;;;;22.00;49.40;;;21.10;49.90;100040.47;12248999;19;19925;-87
2023/07/02 04:14:10;;;;;;;;;;;22.00;49.40;;;21.25;49.84;100075.91;12246326;19;20405;-87
2023/07/02 04:18:11;;;;;;;;;;;22.00;49.50;;;21.25;49.93;100080.41;12252313;19;19985;-88
2023/07/02 04:22:12;;;;;;;;;;;22.00;49.50;;;21.18;49.44;100081.09;12252906;19;19919;-88
2023/07/02 04:26:14;;;;;;;;;;;22.00;49.60;;;21.20;49.60;100092.38;12260889;19;19939;-89
2023/07/02 04:30:16;;;;;;;;;;;22.00;49.40;;;21.21;49.62;100102.00;12248211;19;19984;-87
2023/07/02 04:34:21;;;;;;;;;;;22.00;49.50;;;21.03;49.80;100072.16;12243058;19;19926;-87
2023/07/02 04:38:22;;;;;;;;;;;22.00;49.50;;;21.23;49.83;100095.69;12245579;19;19915;-88
2023/07/02 04:42:27;;;;;;;;;;;22.00;49.50;;;21.21;49.93;100103.81;12245456;19;19957;-87
2023/07/02 04:46:29;;;;;;;;;;;22.00;49.60;;;21.24;50.05;100110.63;12246328;19;19942;-87
2023/07/02 04:50:30;;;;;;;;;;;22.00;49.50;;;21.14;50.17;100090.41;12239411;19;19982;-87
2023/07/02 04:54:32;;;;;;;;;;;22.00;49.50;;;21.10;49.67;100078.44;12241610;19;19923;-88
2023/07/02 04:58:33;;;;;;;;;;;22.00;49.50;;;21.24;50.09;100111.44;12244880;19;19918;-87
2023/07/02 05:02:35;;;;;;;;;;;22.00;49.60;;;21.25;49.99;100122.91;12245508;19;19938;-87
2023/07/02 05:06:37;;;;;;;;;;;22.00;49.60;;;21.10;49.90;100115.63;12245859;19;19911;-87
2023/07/02 05:10:39;;;;;;;;;;;22.00;49.60;;;21.07;49.98;100094.72;12242864;19;19929;-87
2023/07/02 05:14:41;;;;;;;;;;;22.10;49.50;;;21.28;49.97;100119.91;12239979;19;19939;-87
2023/07/02 05:18:42;;;;;;;;;;;22.10;49.50;;;21.24;50.06;100110.63;12245257;19;19956;-87
2023/07/02 05:22:44;;;;;;;;;;;22.10;49.50;;;21.24;50.27;100110.63;12241561;19;20337;-87
2023/07/02 05:26:46;;;;;;;;;;;22.10;49.50;;;21.27;49.83;100115.59;12245764;19;19914;-88
2023/07/02 05:30:47;;;;;;;;;;;22.10;49.50;;;21.03;49.73;100077.47;12241967;19;20329;-87
2023/07/02 05:34:49;;;;;;;;;;;22.10;49.40;;;21.34;50.24;100130.69;12241990;19;19911;-87
2023/07/02 05:38:51;;;;;;;;;;;22.20;49.50;;;21.33;50.22;100110.44;12246092;19;19926;-87
2023/07/02 05:42:53;;;;;;;;;;;22.20;49.60;;;21.42;49.86;100125.38;12242275;19;19928;-87
2023/07/02 05:46:54;;;;;;;;;;;22.30;49.50;;;21.42;50.09;100125.38;12242704;19;19915;-87
2023/07/02 05:50:55;;;;;;;;;;;22.30;49.50;;;21.34;50.31;100111.28;12250923;19;19923;-87
2023/07/02 05:54:57;;;;;;;;;;;22.40;49.60;;;21.54;50.54;100133.00;12255018;19;19919;-87
2023/07/02 05:58:59;;;;;;;;;;;22.40;49.50;;;21.66;50.04;100147.59;12252964;19;19926;-87
2023/07/02 06:03:00;;;;;;;;;;;22.50;49.50;;;21.71;50.18;100165.66;12246848;19;19918;-87
2023/07/02 06:07:02;;;;;;;;;;;22.50;49.30;;;21.68;49.97;100161.50;12254683;19;19933;-87
2023/07/02 06:11:04;;;;;;;;;;;22.60;49.30;;;21.63;50.36;100132.81;12251620;19;19915;-87
2023/07/02 06:15:06;;;;;;;;;;;22.60;49.20;;;21.71;50.34;100152.38;12255336;19;19927;-87
2023/07/02 06:19:07;;;;;;;;;;;22.60;49.20;;;21.62;50.14;100136.44;12255897;19;19929;-88
2023/07/02 06:23:09;;;;;;;;;;;22.60;49.30;;;21.76;50.17;100153.50;12251899;19;20329;-87
2023/07/02 06:27:11;;;;;;;;;;;22.60;49.20;;;21.81;49.93;100160.97;12254888;19;19911;-87
2023/07/02 06:31:13;;;;;;;;;;;22.70;49.30;;;21.91;50.12;100156.28;12248997;19;19919;-88
2023/07/02 06:35:14;;;;;;;;;;;22.80;49.20;;;21.75;50.54;100114.66;12254875;19;20006;-87
2023/07/02 06:39:16;;;;;;;;;;;22.80;49.20;;;22.03;50.38;100149.56;12252290;19;19914;-88
2023/07/02 06:43:18;;;;;;;;;;;22.90;49.30;;;22.08;50.42;100133.09;12250996;19;19919;-87
2023/07/02 06:47:19;;;;;;;;;;;23.00;49.30;;;22.03;50.27;100106.22;12252721;19;19907;-86
2023/07/02 06:51:21;;;;;;;;;;;23.10;49.10;;;22.35;50.26;100137.16;12250097;19;19922;-87
2023/07/02 06:55:23;;;;;;;;;;;23.30;49.00;;;22.41;50.14;100125.78;12251623;19;20323;-86
2023/07/02 06:59:25;;;;;;;;;;;23.30;48.90;;;22.46;49.93;100135.91;12249890;19;19933;-87
2023/07/02 07:03:27;;;;;;;;;;;23.40;48.80;;;22.53;50.32;100136.88;12248143;19;20578;-89
2023/07/02 07:07:28;;;;;;;;;;;23.50;48.80;;;22.56;50.07;100133.84;12249750;19;19962;-87
2023/07/02 07:11:30;;;;;;;;;;;23.60;48.80;;;22.76;50.43;100150.16;12246892;19;19915;-87
2023/07/02 07:15:35;;;;;;;;;;;23.70;48.70;;;22.71;50.43;100112.59;12250685;19;19918;-87
2023/07/02 07:19:37;;;;;;;;;;;23.80;48.50;;;22.85;50.04;100135.78;12252250;19;20256;-86
2023/07/02 07:23:39;;;;;;;;;;;23.90;48.20;;;22.98;49.90;100137.91;12246676;19;19956;-86
2023/07/02 07:27:41;;;;;;;;;;;24.00;48.20;;;22.92;49.86;100122.59;12251829;19;19926;-88
2023/07/02 07:31:43;;;;;;;;;;;24.00;47.90;;;23.10;50.23;100147.09;12246754;19;19944;-86
2023/07/02 07:35:45;;;;;;;;;;;24.10;47.40;;;22.90;50.05;100122.78;12249588;19;19915;-86
2023/07/02 07:39:46;;;;;;;;;;;24.10;47.70;;;23.09;50.16;100158.75;12249878;19;20330;-85
2023/07/02 07:43:48;;;;;;;;;;;24.10;47.80;;;23.11;50.02;100148.72;12249424;19;19933;-86
2023/07/02 07:47:49;;;;;;;;;;;24.10;47.70;;;23.18;49.76;100140.88;12252224;19;20258;-86
2023/07/02 07:51:52;;;;;;;;;;;24.20;47.70;;;23.37;49.75;100158.97;12245694;19;19939;-86
2023/07/02 07:55:53;;;;;;;;;;;24.30;47.80;;;23.48;50.10;100162.22;12250358;19;19914;-86
2023/07/02 07:59:55;;;;;;;;;;;24.30;47.60;;;23.54;49.84;100169.47;12248765;19;19915;-88
2023/07/02 08:03:56;;;;;;;;;;;24.50;47.40;;;23.50;49.99;100162.88;12240433;19;19918;-86
2023/07/02 08:07:58;;;;;;;;;;;24.60;47.50;;;23.47;49.81;100184.56;12249784;19;19926;-87
2023/07/02 08:12:00;;;;;;;;;;;24.60;47.30;;;23.49;49.56;100171.84;12242839;19;20309;-86
2023/07/02 08:16:02;;;;;;;;;;;24.60;46.90;;;23.27;49.42;100154.94;12249724;19;19919;-86
2023/07/02 08:20:04;;;;;;;;;;;24.50;46.70;;;23.27;49.79;100161.06;12245784;19;19915;-87
2023/07/02 08:24:06;;;;;;;;;;;24.50;47.10;;;23.42;49.34;100201.91;12243960;19;19938;-86
2023/07/02 08:28:07;;;;;;;;;;;24.40;46.90;;;23.17;49.70;100173.84;12245978;19;19926;-87
2023/07/02 08:32:09;;;;;;;;;;;24.30;46.80;;;23.29;49.60;100220.34;12247474;19;19923;-87
2023/07/02 08:36:14;;;;;;;;;;;24.30;47.10;;;23.00;49.28;100177.66;12240969;19;20502;-87
2023/07/02 08:40:17;;;;;;;;;;;24.20;46.90;;;23.13;49.61;100188.53;12247273;19;19911;-88
2023/07/02 08:44:21;;;;;;;;;;;24.10;47.00;;;22.84;49.38;100173.25;12247598;19;19919;-87
2023/07/02 08:48:24;;;;;;;;;;;24.00;46.80;;;23.05;49.12;100215.22;12248110;19;19923;-88
2023/07/02 08:52:25;;;;;;;;;;;24.00;47.00;;;22.96;49.22;100223.28;12248528;19;19926;-89
2023/07/02 08:56:27;;;;;;;;;;;23.90;47.00;;;22.77;49.08;100207.75;12246712;19;19915;-88
2023/07/02 09:00:31;;;;;;;;;;;23.90;47.30;;;22.86;49.36;100230.63;12247685;19;19915;-88
2023/07/02 09:04:32;;;;;;;;;;;23.80;46.70;;;22.79;49.02;100207.56;12243811;19;19979;-88
2023/07/02 09:08:35;;;;;;;;;;;23.70;46.30;;;22.47;49.12;100177.50;12247599;19;20256;-87
2023/07/02 09:12:38;;;;;;;;;;;23.60;46.60;;;22.58;49.33;100202.88;12244337;19;19919;-89
2023/07/02 09:16:41;;;;;;;;;;;23.50;46.40;;;22.51;49.10;100208.88;12243592;19;19915;-87
2023/07/02 09:20:42;;;;;;;;;;;23.40;46.70;;;22.41;49.17;100188.81;12245587;19;20349;-87
2023/07/02 09:24:53;;;;;;;;;;;23.40;46.90;;;22.60;48.86;100236.31;12252095;19;19915;-88
2023/07/02 09:29:01;;;;;;;;;;;23.40;46.90;;;22.57;49.16;100228.66;12256344;19;19925;-88
2023/07/02 09:33:07;;;;;;;;;;;23.40;46.90;;;22.54;49.05;100235.16;12254834;19;20516;-88
2023/07/02 09:37:09;;;;;;;;;;;23.30;46.90;;;22.24;48.82;100194.22;12255134;19;19975;-88
2023/07/02 09:41:10;;;;;;;;;;;23.30;46.80;;;22.48;48.90;100235.84;12258029;19;19932;-86
2023/07/02 09:45:13;;;;;;;;;;;23.30;46.90;;;22.45;48.82;100233.53;12255278;19;19919;-87
2023/07/02 09:49:16;;;;;;;;;;;23.20;47.30;;;22.29;49.08;100220.31;12254379;19;19925;-87
2023/07/02 09:53:18;;;;;;;;;;;23.20;46.80;;;22.39;49.10;100234.25;12251605;19;20009;-87
2023/07/02 09:57:19;;;;;;;;;;;23.20;46.70;;;22.22;48.75;100206.03;12255660;19;19941;-87
2023/07/02 10:01:21;;;;;;;;;;;23.20;47.00;;;22.45;48.91;100256.66;12253779;19;19955;-87
2023/07/02 10:05:30;;;;;;;;;;;23.20;47.20;;;22.42;48.92;100220.59;12253078;19;19935;-87
2023/07/02 10:09:45;;;;;;;;;;;23.20;47.20;;;22.60;48.87;100243.44;12252825;19;20375;-87
2023/07/02 10:13:58;;;;;;;;;;;23.30;47.20;;;22.57;48.77;100223.31;12259592;19;19919;-88
2023/07/02 10:18:01;;;;;;;;;;;23.40;47.00;;;22.67;49.00;100220.44;12260814;19;19915;-87
2023/07/02 10:22:04;;;;;;;;;;;23.50;47.10;;;22.60;49.27;100199.03;12254883;19;19974;-87
2023/07/02 10:26:11;;;;;;;;;;;23.50;47.20;;;22.82;48.94;100226.69;12258531;19;20271;-88
2023/07/02 10:30:12;;;;;;;;;;;23.70;47.20;;;22.96;48.91;100220.63;12258726;19;19960;-88
2023/07/02 10:34:14;;;;;;;;;;;23.80;47.20;;;22.91;48.98;100209.63;12248629;19;20341;-88
2023/07/02 10:38:18;;;;;;;;;;;24.00;47.20;;;23.33;49.06;100242.13;12260662;19;19915;-89
2023/07/02 10:42:20;;;;;;;;;;;24.10;47.00;;;23.44;48.74;100230.19;12256422;19;19983;-88
2023/07/02 10:46:22;;;;;;;;;;;24.30;47.10;;;23.56;48.75;100216.25;12259543;19;19951;-89
2023/07/02 10:50:23;;;;;;;;;;;24.40;46.40;;;23.50;48.96;100189.53;12263139;19;19938;-88
2023/07/02 10:54:25;;;;;;;;;;;24.60;46.50;;;23.72;48.98;100201.16;12248684;19;19920;-88
2023/07/02 10:58:26;;;;;;;;;;;24.70;46.50;;;23.76;48.71;100192.59;12250749;19;19939;-87
2023/07/02 11:02:37;;;;;;;;;;;24.80;46.50;;;24.02;48.59;100220.63;12247651;19;19930;-86
2023/07/02 11:06:38;;;;;;;;;;;25.00;46.50;;;24.05;48.45;100213.09;12248229;19;19918;-88
2023/07/02 11:10:40;;;;;;;;;;;25.10;46.60;;;24.15;48.82;100212.00;12248297;19;19915;-87
2023/07/02 11:14:42;;;;;;;;;;;25.10;46.30;;;24.26;48.72;100209.66;12245483;19;19946;-87
2023/07/02 11:18:43;;;;;;;;;;;25.20;46.50;;;24.40;48.91;100202.63;12251546;19;19936;-87
2023/07/02 11:22:47;;;;;;;;;;;25.30;46.40;;;24.41;48.43;100192.78;12246584;19;19922;-87
2023/07/02 11:26:49;;;;;;;;;;;25.40;46.20;;;24.52;48.43;100208.38;12244800;19;19925;-87
2023/07/02 11:30:51;;;;;;;;;;;25.40;46.30;;;24.46;48.67;100201.09;12239151;19;19975;-88
2023/07/02 11:34:56;;;;;;;;;;;25.60;46.10;;;24.58;48.22;100222.81;12240831;19;19974;-88
2023/07/02 11:38:58;;;;;;;;;;;25.60;45.50;;;24.56;48.45;100212.28;12248193;19;19941;-88
2023/07/02 11:42:59;;;;;;;;;;;25.50;44.90;;;24.46;48.36;100196.56;12247322;19;19927;-88
2023/07/02 11:47:01;;;;;;;;;;;25.60;44.90;;;24.66;48.10;100217.34;12246157;19;19919;-88
2023/07/02 11:51:02;;;;;;;;;;;25.60;44.80;;;24.55;48.40;100181.28;12246585;19;19911;-87
2023/07/02 11:55:05;;;;;;;;;;;25.70;44.90;;;24.79;48.33;100220.16;12244520;19;19933;-87
2023/07/02 11:59:06;;;;;;;;;;;25.80;45.10;;;24.96;47.79;100234.09;12243792;19;19929;-87
2023/07/02 12:03:08;;;;;;;;;;;25.90;44.20;;;24.95;47.73;100217.22;12245418;19;19923;-87
2023/07/02 12:07:09;;;;;;;;;;;25.90;43.60;;;25.07;47.54;100230.91;12246318;19;19946;-86
2023/07/02 12:11:11;;;;;;;;;;;26.00;44.60;;;25.17;47.90;100244.81;12244986;19;19954;-86
2023/07/02 12:15:12;;;;;;;;;;;26.10;44.50;;;25.11;47.56;100229.50;12243667;19;20384;-87
2023/07/02 12:19:14;;;;;;;;;;;26.20;43.60;;;25.30;47.33;100249.44;12246296;19;19923;-87
2023/07/02 12:23:15;;;;;;;;;;;26.30;44.20;;;25.34;47.66;100258.72;12244238;19;19970;-86
2023/07/02 12:27:17;;;;;;;;;;;26.30;44.10;;;25.21;47.65;100236.41;12246723;19;19911;-88
2023/07/02 12:31:18;;;;;;;;;;;26.40;43.50;;;25.29;47.49;100238.94;12246023;19;19946;-88
2023/07/02 12:35:19;;;;;;;;;;;26.30;43.20;;;25.36;46.95;100254.00;12245251;19;19923;-86
2023/07/02 12:39:21;;;;;;;;;;;26.40;43.50;;;25.31;47.47;100242.25;12246477;19;19918;-86
2023/07/02 12:43:23;;;;;;;;;;;26.40;43.60;;;25.25;47.09;100248.34;12242567;19;19923;-87
2023/07/02 12:47:24;;;;;;;;;;;26.30;43.10;;;25.21;47.19;100255.91;12246986;19;19931;-87
2023/07/02 12:51:26;;;;;;;;;;;26.30;43.00;;;25.25;47.02;100256.34;12242384;19;20257;-87
2023/07/02 12:55:27;;;;;;;;;;;26.20;43.50;;;25.30;46.81;100269.97;12247282;19;19918;-86
2023/07/02 12:59:29;;;;;;;;;;;26.30;43.60;;;25.27;46.90;100248.97;12253881;19;20632;-87
2023/07/02 13:03:31;;;;;;;;;;;26.30;43.00;;;25.35;46.64;100260.34;12251970;19;20345;-88
2023/07/02 13:07:32;;;;;;;;;;;26.30;42.10;;;25.13;46.47;100240.81;12253206;19;19943;-87
2023/07/02 13:11:34;;;;;;;;;;;26.20;42.90;;;25.39;46.42;100291.03;12253311;19;19919;-87
2023/07/02 13:15:35;;;;;;;;;;;26.30;43.00;;;25.26;46.50;100266.03;12254767;19;20322;-87
2023/07/02 13:19:37;;;;;;;;;;;26.30;42.10;;;25.23;46.31;100261.91;12255291;19;19935;-88
2023/07/02 13:23:39;;;;;;;;;;;26.30;41.30;;;25.39;46.62;100284.88;12251984;19;19919;-89
2023/07/02 13:27:40;;;;;;;;;;;26.30;41.40;;;25.48;46.37;100283.72;12256463;19;19918;-88
2023/07/02 13:31:42;;;;;;;;;;;26.30;41.70;;;25.28;46.29;100253.31;12251177;19;19951;-88
2023/07/02 13:35:45;;;;;;;;;;;26.40;42.30;;;25.50;46.13;100284.34;12255705;19;19929;-87
2023/07/02 13:39:48;;;;;;;;;;;26.40;42.20;;;25.43;46.26;100256.72;12252569;19;19930;-87
2023/07/02 13:43:50;;;;;;;;;;;26.50;42.60;;;25.65;46.07;100288.78;12249674;19;19914;-88
2023/07/02 13:47:51;;;;;;;;;;;26.60;41.10;;;25.72;45.94;100281.63;12253668;19;19919;-89
2023/07/02 13:51:53;;;;;;;;;;;26.70;40.30;;;25.69;46.15;100274.00;12249622;19;19992;-88
2023/07/02 13:55:54;;;;;;;;;;;26.70;42.30;;;25.91;45.66;100301.56;12254977;19;20528;-87
2023/07/02 13:59:56;;;;;;;;;;;26.80;42.30;;;25.93;45.88;100288.81;12246336;19;19919;-87
2023/07/02 14:03:58;;;;;;;;;;;26.90;41.60;;;26.10;45.61;100326.78;12249363;19;20471;-88
2023/07/02 14:08:00;;;;;;;;;;;27.00;41.70;;;26.05;45.60;100304.09;12250514;19;19943;-87
2023/07/02 14:12:01;;;;;;;;;;;27.00;41.50;;;25.95;45.45;100287.59;12247868;19;19922;-87
2023/07/02 14:16:03;;;;;;;;;;;27.00;41.80;;;26.12;45.31;100324.75;12251124;19;19914;-87
2023/07/02 14:20:06;;;;;;;;;;;27.00;41.80;;;26.12;45.55;100322.09;12252789;19;19922;-87
2023/07/02 14:24:09;;;;;;;;;;;27.00;40.90;;;26.19;45.04;100336.31;12248721;19;19930;-87
2023/07/02 14:28:10;;;;;;;;;;;27.10;41.10;;;26.16;45.15;100342.06;12251998;19;20247;-87
2023/07/02 14:32:11;;;;;;;;;;;27.00;41.10;;;26.19;45.30;100342.53;12246174;19;19932;-87
2023/07/02 14:36:13;;;;;;;;;;;27.10;41.30;;;26.26;45.19;100334.50;12252049;19;19948;-87
2023/07/02 14:40:14;;;;;;;;;;;27.10;40.90;;;26.23;45.14;100329.56;12249312;19;19918;-87
2023/07/02 14:44:15;;;;;;;;;;;27.20;40.80;;;26.33;44.84;100343.41;12239397;19;19923;-88
2023/07/02 14:48:17;;;;;;;;;;;27.20;40.40;;;26.31;44.66;100334.75;12250038;19;20388;-88
2023/07/02 14:52:19;;;;;;;;;;;27.20;41.00;;;26.22;44.49;100310.00;12244352;19;19915;-88
2023/07/02 14:56:21;;;;;;;;;;;27.20;41.10;;;26.35;44.28;100319.94;12247738;19;19915;-88
2023/07/02 15:00:22;;;;;;;;;;;27.30;42.00;;;26.45;44.45;100341.81;12245223;19;19939;-88
2023/07/02 15:04:24;;;;;;;;;;;27.30;39.90;;;26.39;44.31;100329.22;12246898;19;19919;-88
2023/07/02 15:08:26;;;;;;;;;;;27.30;39.60;;;26.41;44.27;100345.09;12251477;19;20353;-89
2023/07/02 15:12:28;;;;;;;;;;;27.20;40.70;;;26.32;43.87;100340.94;12247475;19;19929;-88
2023/07/02 15:16:29;;;;;;;;;;;27.30;40.40;;;26.25;44.17;100347.06;12244533;19;20017;-87
2023/07/02 15:20:31;;;;;;;;;;;27.20;40.70;;;26.17;43.88;100323.16;12243107;19;19927;-88
2023/07/02 15:24:33;;;;;;;;;;;27.20;40.10;;;26.26;44.23;100358.59;12244873;19;19915;-87
2023/07/02 15:28:35;;;;;;;;;;;27.10;40.20;;;26.32;43.82;100346.28;12247460;19;20514;-88
2023/07/02 15:32:37;;;;;;;;;;;27.20;40.50;;;26.13;44.08;100318.38;12247306;19;19996;-88
2023/07/02 15:36:38;;;;;;;;;;;27.10;39.20;;;26.24;43.90;100333.88;12246362;19;19940;-87
2023/07/02 15:40:40;;;;;;;;;;;27.10;39.10;;;26.27;43.62;100358.44;12248869;19;19918;-87
2023/07/02 15:44:43;;;;;;;;;;;27.10;39.70;;;26.23;43.36;100335.72;12245302;19;19915;-87
2023/07/02 15:48:45;;;;;;;;;;;27.10;39.80;;;26.28;43.47;100351.22;12246363;19;19925;-87
2023/07/02 15:52:47;;;;;;;;;;;27.10;39.00;;;26.27;43.66;100355.75;12247074;19;19922;-87
2023/07/02 15:56:48;;;;;;;;;;;27.10;40.00;;;26.30;43.32;100357.19;12246879;19;19922;-87
2023/07/02 16:00:50;;;;;;;;;;;27.10;39.30;;;26.16;43.16;100342.06;12248759;19;20597;-86
2023/07/02 16:04:51;;;;;;;;;;;27.10;40.00;;;26.21;42.94;100355.69;12242084;19;19922;-87
2023/07/02 16:08:53;;;;;;;;;;;27.10;39.50;;;26.23;43.25;100346.44;12238589;19;19933;-87
2023/07/02 16:12:55;;;;;;;;;;;27.10;38.90;;;26.14;42.95;100357.47;12244388;19;19915;-87
2023/07/02 16:16:56;;;;;;;;;;;27.00;39.70;;;25.95;43.21;100351.81;12246480;19;19919;-86
2023/07/02 16:20:59;;;;;;;;;;;27.00;39.80;;;26.06;42.85;100385.25;12247203;19;19986;-86
2023/07/02 16:25:01;;;;;;;;;;;26.90;38.80;;;25.93;43.06;100361.88;12244605;19;19911;-88
2023/07/02 16:29:03;;;;;;;;;;;26.90;39.60;;;25.99;42.76;100377.16;12248174;19;19955;-89
2023/07/02 16:33:04;;;;;;;;;;;26.80;39.50;;;25.87;42.46;100384.06;12236987;19;19915;-88
2023/07/02 16:37:05;;;;;;;;;;;26.70;39.50;;;25.91;42.69;100377.31;12245037;19;19930;-88
2023/07/02 16:41:07;;;;;;;;;;;26.70;39.30;;;25.89;42.52;100384.69;12246243;19;20615;-88
2023/07/02 16:45:08;;;;;;;;;;;26.70;39.90;;;25.73;42.64;100364.34;12246423;19;19907;-87
2023/07/02 16:49:10;;;;;;;;;;;26.70;39.70;;;25.84;42.51;100389.78;12244657;19;19915;-87
2023/07/02 16:53:12;;;;;;;;;;;26.60;39.50;;;25.71;42.45;100387.00;12244973;19;19959;-87
2023/07/02 16:57:14;;;;;;;;;;;26.60;39.40;;;25.65;42.67;100379.72;12245820;19;19978;-87
2023/07/02 17:01:16;;;;;;;;;;;26.50;39.70;;;25.71;42.30;100409.22;12244668;19;19918;-87
2023/07/02 17:05:17;;;;;;;;;;;26.50;38.50;;;25.58;42.24;100398.38;12246499;19;19918;-87
2023/07/02 17:09:35;;;;;;;;;;;26.40;39.60;;;25.51;42.39;100397.47;12244635;19;19914;-87
2023/07/02 17:13:37;;;;;;;;;;;26.30;39.70;;;25.49;42.28;100411.06;12241176;19;19923;-87
2023/07/02 17:17:41;;;;;;;;;;;26.20;39.90;;;25.34;42.27;100381.69;12232531;19;19922;-87
2023/07/02 17:21:42;;;;;;;;;;;26.20;40.00;;;25.46;42.21;100410.59;12242169;19;19933;-88
2023/07/02 17:25:43;;;;;;;;;;;26.20;39.90;;;25.50;42.16;100409.22;12240688;19;19935;-87
2023/07/02 17:29:50;;;;;;;;;;;26.20;40.00;;;25.43;42.05;100416.31;12242116;19;19935;-86
2023/07/02 17:33:51;;;;;;;;;;;26.20;39.70;;;25.14;42.28;100381.44;12238965;19;19907;-87
2023/07/02 17:37:53;;;;;;;;;;;26.10;39.00;;;25.22;41.92;100409.09;12243867;19;20329;-86
2023/07/02 17:41:56;;;;;;;;;;;26.00;39.50;;;25.14;42.26;100402.81;12243531;19;20471;-87
2023/07/02 17:45:57;;;;;;;;;;;25.90;39.40;;;25.09;41.75;100409.75;12255985;19;19919;-87
2023/07/02 17:49:59;;;;;;;;;;;25.90;39.40;;;25.01;41.89;100402.66;12249970;19;19922;-87
2023/07/02 17:54:01;;;;;;;;;;;25.80;39.40;;;24.99;42.11;100403.88;12251313;19;19922;-88
2023/07/02 17:58:03;;;;;;;;;;;25.80;39.20;;;24.84;41.76;100401.19;12254701;19;19919;-86
2023/07/02 18:02:05;;;;;;;;;;;25.70;39.10;;;24.86;41.86;100417.88;12250434;19;20349;-87
2023/07/02 18:06:07;;;;;;;;;;;25.70;39.30;;;24.70;41.63;100401.03;12254628;19;19919;-87
2023/07/02 18:10:10;;;;;;;;;;;25.60;39.70;;;24.86;41.84;100441.91;12251937;19;19918;-87